Flight Track Log - Related Links

Times and Time Zones

All times are in EST time to prevent confusion due to time zone crossing. See the N6036Y flight status page for this flight to view local times or setup timezone preferences in your user account.


Time Position Orientation Groundspeed Altitude Reporting Facility
EST Latitude Longitude Course Direction KTS MPH feet Rate Location/Type
Fri 07:37:33 PM 29.0536 -80.9592 270° West 66 76 500  Level Jacksonville Center
Fri 07:37:39 PM 29.0536 -80.9614 270° West 66 76 500 629 Level Jacksonville Center
Fri 07:39:18 PM 29.0333 -81.0000 239° Southwest 89 102 1,600 604 Climbing Orlando TRACON
Fri 07:40:18 PM 29.0167 -81.0000 180° South 110 127 2,100 619 Climbing Orlando TRACON
Fri 07:41:24 PM 28.9833 -80.9833 156° South 100 115 2,900 667 Climbing Orlando TRACON
Fri 07:42:24 PM 28.9667 -80.9667 139° Southeast 104 120 3,500 684 Climbing Orlando TRACON
Fri 07:43:18 PM 28.9333 -80.9667 180° South 109 125 4,200 632 Climbing Orlando TRACON
Fri 07:44:18 PM 28.9167 -80.9500 139° Southeast 110 127 4,700 550 Climbing Orlando TRACON
Fri 07:45:18 PM 28.8833 -80.9333 156° South 107 123 5,300 545 Climbing Orlando TRACON
Fri 07:46:19 PM 28.8500 -80.9333 180° South 113 130 5,800 397 Climbing Orlando TRACON
Fri 07:47:19 PM 28.8167 -80.9167 156° South 115 132 6,100 100 Climbing Orlando TRACON
Fri 07:48:19 PM 28.7833 -80.9000 156° South 134 154 6,000  Descending Orlando TRACON
Fri 07:49:19 PM 28.7500 -80.9000 180° South 125 144 6,100 50 Climbing Orlando TRACON
Fri 07:50:19 PM 28.7167 -80.8833 156° South 121 139 6,100 -50 Level Orlando TRACON
Fri 07:51:19 PM 28.6833 -80.8667 156° South 126 145 6,000 -50 Descending Orlando TRACON
Fri 07:52:19 PM 28.6500 -80.8500 156° South 127 146 6,000  Level Orlando TRACON
Fri 07:53:19 PM 28.6167 -80.8333 156° South 129 148 6,000  Level Orlando TRACON
Fri 07:54:19 PM 28.5833 -80.8167 156° South 128 147 6,000 50 Level Orlando TRACON
Fri 07:55:19 PM 28.5500 -80.8167 180° South 127 146 6,100  Climbing Orlando TRACON
Fri 07:56:19 PM 28.5167 -80.8000 156° South 123 142 6,000 -50 Descending Orlando TRACON
Fri 07:57:19 PM 28.4833 -80.7833 156° South 124 143 6,000  Level Orlando TRACON
Fri 07:58:19 PM 28.4500 -80.7667 156° South 123 142 6,000  Level Orlando TRACON
Fri 07:59:19 PM 28.4333 -80.7667 180° South 124 143 6,000  Level Orlando TRACON
Fri 08:00:19 PM 28.4000 -80.7500 156° South 122 140 6,000  Level Orlando TRACON
Fri 08:01:19 PM 28.3667 -80.7333 156° South 121 139 6,000  Level Orlando TRACON
Fri 08:02:19 PM 28.3333 -80.7167 156° South 121 139 6,000 50 Level Orlando TRACON
Fri 08:03:19 PM 28.3000 -80.7167 180° South 119 137 6,100 50 Climbing Orlando TRACON
Fri 08:04:19 PM 28.2667 -80.7000 156° South 118 136 6,100 -32 Level Orlando TRACON
Fri 08:06:26 PM 28.2061 -80.6781 162° South 121 139 6,000 -32 Descending Miami Center
Fri 08:07:27 PM 28.1667 -80.6625 161° South 126 145 6,000 50 Level Miami Center
Fri 08:08:27 PM 28.1378 -80.6497 159° South 126 145 6,100 50 Climbing Miami Center
Fri 08:09:27 PM 28.1050 -80.6344 158° South 126 145 6,100  Level Miami Center
Fri 08:10:27 PM 28.0717 -80.6333 178° South 121 139 6,100  Level Miami Center
Fri 08:11:27 PM 28.0381 -80.6347 182° South 121 139 6,100  Level Miami Center
Fri 08:12:27 PM 28.0089 -80.6361 182° South 121 139 6,100  Level Miami Center
Fri 08:13:50 PM 27.9756 -80.6372 182° South 121 139 6,100  Level Miami Center
Fri 08:14:51 PM 27.9358 -80.6406 184° South 121 139 6,100  Level Miami Center
Fri 08:15:51 PM 27.9086 -80.6397 178° South 121 139 6,100  Level Miami Center
Fri 08:17:14 PM 27.8689 -80.6408 181° South 121 139 6,100 -38 Level Miami Center
Fri 08:18:27 PM 27.8292 -80.6419 181° South 115 132 6,000 -45 Descending Miami Center
Fri 08:19:27 PM 27.7958 -80.6431 182° South 115 132 6,000  Level Miami Center
Fri 08:20:27 PM 27.7644 -80.6467 186° South 115 132 6,000 -46 Level Miami Center
Fri 08:21:38 PM 27.7331 -80.6481 182° South 115 132 5,900 -45 Descending Miami Center
Fri 08:22:39 PM 27.6975 -80.6492 182° South 115 132 5,900 50 Level Miami Center
Fri 08:23:39 PM 27.6642 -80.6503 182° South 120 138 6,000 50 Climbing Miami Center
Fri 08:24:39 PM 27.6328 -80.6494 179° South 120 138 6,000 -50 Level Miami Center
Fri 08:25:39 PM 27.6014 -80.6531 186° South 120 138 5,900  Descending Miami Center
Fri 08:26:39 PM 27.5742 -80.6544 183° South 120 138 6,000 50 Climbing Miami Center
Fri 08:27:39 PM 27.5450 -80.6558 182° South 120 138 6,000  Level Miami Center
Fri 08:28:39 PM 27.5136 -80.6572 182° South 120 138 6,000  Level Miami Center
Fri 08:29:39 PM 27.4844 -80.6586 182° South 115 132 6,000  Level Miami Center
Fri 08:30:39 PM 27.4531 -80.6597 182° South 115 132 6,000  Level Miami Center
Fri 08:31:39 PM 27.4281 -80.6614 183° South 115 132 6,000  Level Miami Center
Fri 08:32:39 PM 27.3967 -80.6625 182° South 115 132 6,000  Level Miami Center
Fri 08:33:39 PM 27.3653 -80.6617 179° South 110 127 6,000  Level Miami Center
Fri 08:34:39 PM 27.3361 -80.6631 182° South 110 127 6,000  Level Miami Center
Fri 08:35:39 PM 27.3067 -80.6644 182° South 102 117 6,000  Level Miami Center
Fri 08:36:39 PM 27.2817 -80.6658 183° South 102 117 6,000 -50 Level Miami Center
Fri 08:37:39 PM 27.2503 -80.6672 182° South 102 117 5,900  Descending Miami Center
Fri 08:38:39 PM 27.2189 -80.6661 178° South 102 117 6,000  Climbing Miami Center
Fri 08:39:39 PM 27.1919 -80.6675 183° South 102 117 5,900  Descending Miami Center
Fri 08:40:39 PM 27.1625 -80.6667 179° South 102 117 6,000 50 Climbing Miami Center
Fri 08:41:39 PM 27.1375 -80.6706 188° South 102 117 6,000  Level Miami Center
Fri 08:42:38 PM 27.1125 -80.6697 178° South 102 117 6,000  Level Miami Center
Fri 08:43:39 PM 27.0769 -80.6708 182° South 102 117 6,000 -149 Level Miami Center
Fri 08:44:39 PM 27.0497 -80.6747 187° South 102 117 5,700 -158 Descending Miami Center
Fri 09:01:58 PM 26.5469 -80.4956 158° South 119 137 3,100 -144 Descending Miami Center
Fri 09:02:00 PM 26.5361 -80.5694 158° South  Level FlightAware Approximate
Fri 09:02:41 PM 26.5306 -80.4742 131° Southeast 121 139 3,100  Level Miami Center
Fri 09:03:00 PM 26.5075 -80.5564 158° South  Level FlightAware Approximate
Fri 09:03:48 PM 26.5000 -80.4503 145° Southeast 120 138 3,100  Level Miami Center
Fri 09:04:00 PM 26.4790 -80.5434 158° South  Level FlightAware Approximate
Fri 09:04:43 PM 26.4753 -80.4286 142° Southeast 123 142 3,000  Level Miami Center
Fri 09:05:00 PM 26.4504 -80.5304 158° South  Level FlightAware Approximate
Fri 09:05:56 PM 26.4447 -80.3975 138° Southeast 120 138 3,100  Level Miami Center
Fri 09:06:00 PM 26.4218 -80.5175 158° South  Level FlightAware Approximate
Fri 09:06:57 PM 26.4244 -80.3714 131° Southeast 122 140 3,000  Level Miami Center
Fri 09:07:00 PM 26.3932 -80.5045 158° South  Level FlightAware Approximate
Fri 09:07:52 PM 26.4106 -80.3408 117° Southeast 117 135 3,000  Level Miami Center
Fri 09:08:59 PM 26.3906 -80.3053 122° Southeast 117 135 3,000 47 Level Miami Center
Fri 09:10:00 PM 26.3747 -80.2769 122° Southeast 113 130 3,100  Climbing Miami Center
Fri 09:10:55 PM 26.3606 -80.2467 118° Southeast 117 135 3,000 -49 Descending Miami Center
Fri 09:12:02 PM 26.3425 -80.2158 123° Southeast 112 129 3,000 50 Level Miami Center
Fri 09:12:56 PM 26.3264 -80.1875 122° Southeast 111 128 3,100 52 Climbing Miami Center
Fri 09:13:57 PM 26.3106 -80.1569 120° Southeast 113 130 3,100 -52 Level Miami Center
Fri 09:14:52 PM 26.2964 -80.1289 119° Southeast 115 132 3,000 -98 Descending Miami Center
Fri 09:15:59 PM 26.2764 -80.0981 126° Southeast 112 129 2,900 -281 Descending Miami Center
Fri 09:17:00 PM 26.2667 -80.0608 106° East 117 135 2,400 -414 Descending Miami Center
Fri 09:17:55 PM 26.2611 -80.0306 102° East 120 138 2,100 -414 Descending Miami Center
Fri 09:18:56 PM 26.2322 -80.0114 149° Southeast 115 132 1,600 -234 Descending Miami Center
Fri 09:20:03 PM 26.2069 -80.0222 201° Southwest 96 110 1,600 -50 Level Miami Center
Fri 09:20:57 PM 26.2064 -80.0453 268° West 81 93 1,500 -50 Descending Miami Center
Fri 09:22:04 PM 26.2058 -80.0731 269° West 85 98 1,500 -94 Level Miami Center
Fri 09:23:05 PM 26.2033 -80.0961 263° West 75 86 1,300 -310 Descending Miami Center
Fri 09:24:00 PM 26.2008 -80.1169 262° West 77 89 900 -414 Descending Miami Center
Fri 09:25:01 PM 26.2000 -80.1425 268° West 74 85 500 -393 Descending Miami Center
Fri 09:27:00 PM 26.1973 -80.1707 244° Southwest  Level Estimated
Fri 09:34:00 PM 26.1973 -80.1707 61° Northeast  Level Estimated

Login

Don't have an account? Register now (free) for customized features, flight alerts, and more!